createdAt,value
2022-12-04T00:01:45.930Z,83.30
2022-12-04T00:04:16.006Z,89.77
2022-12-04T00:06:45.747Z,80.13
2022-12-04T00:09:15.841Z,81.80
2022-12-04T00:11:45.619Z,89.97
2022-12-04T00:14:17.359Z,87.53
2022-12-04T00:16:47.235Z,91.03
2022-12-04T00:19:18.017Z,89.22
2022-12-04T00:21:49.360Z,86.73
2022-12-04T00:24:19.425Z,85.57
2022-12-04T00:26:49.482Z,82.02
2022-12-04T00:29:19.524Z,80.12
2022-12-04T00:31:49.429Z,82.10
2022-12-04T00:34:19.478Z,82.75
2022-12-04T00:36:49.295Z,83.73
2022-12-04T00:39:19.331Z,85.17
2022-12-04T00:41:49.082Z,95.93
2022-12-04T00:44:19.133Z,89.45
2022-12-04T00:46:49.173Z,94.15
2022-12-04T00:49:18.940Z,77.13
2022-12-04T00:51:48.664Z,85.33
2022-12-04T00:54:18.124Z,84.87
2022-12-04T00:56:47.864Z,85.07
2022-12-04T00:59:17.898Z,92.00
2022-12-04T01:01:47.691Z,87.63
2022-12-04T01:04:18.340Z,82.20
2022-12-04T01:06:48.211Z,92.37
2022-12-04T01:09:18.719Z,93.80
2022-12-04T01:11:48.745Z,86.87
2022-12-04T01:14:20.985Z,87.24
2022-12-04T01:16:51.087Z,86.55
2022-12-04T01:19:20.863Z,87.67
2022-12-04T01:21:50.700Z,86.60
2022-12-04T01:24:20.445Z,91.20
2022-12-04T01:26:50.192Z,83.30
2022-12-04T01:29:20.224Z,90.03
2022-12-04T01:31:50.050Z,96.77
2022-12-04T01:34:19.618Z,95.25
2022-12-04T01:36:49.374Z,96.73
2022-12-04T01:39:19.503Z,94.20
2022-12-04T01:41:49.307Z,86.87
2022-12-04T01:44:25.458Z,87.16
2022-12-04T01:46:57.155Z,92.77
2022-12-04T01:49:35.602Z,87.50
2022-12-04T01:52:16.476Z,91.63
2022-12-04T01:54:49.204Z,80.63
2022-12-04T01:57:21.590Z,90.47
2022-12-04T01:59:54.435Z,92.63
2022-12-04T02:02:30.524Z,90.87
2022-12-04T02:05:02.897Z,92.83
2022-12-04T02:07:33.571Z,87.77
2022-12-04T02:10:08.066Z,87.67
2022-12-04T02:12:46.277Z,88.63
2022-12-04T02:15:25.064Z,82.40
2022-12-04T02:18:00.823Z,89.67
2022-12-04T02:20:33.702Z,93.95
2022-12-04T02:23:39.350Z,94.00
2022-12-04T02:26:43.425Z,88.07
2022-12-04T02:29:22.035Z,86.27
2022-12-04T02:31:55.206Z,81.17
2022-12-04T02:34:43.802Z,88.47
2022-12-04T02:37:19.907Z,87.97
2022-12-04T02:42:28.883Z,86.17
2022-12-04T02:45:04.338Z,94.35
2022-12-04T02:47:36.646Z,97.50
2022-12-04T02:53:00.554Z,94.13
2022-12-04T02:55:40.723Z,89.03
2022-12-04T02:58:14.577Z,98.98
2022-12-04T03:00:46.395Z,89.63
2022-12-04T03:03:19.348Z,88.33
2022-12-04T03:05:57.160Z,86.63
2022-12-04T03:08:32.648Z,96.65
2022-12-04T03:11:03.048Z,88.03
2022-12-04T03:13:38.837Z,93.97
2022-12-04T03:16:14.125Z,92.57
2022-12-04T03:21:32.373Z,89.22
2022-12-04T03:24:08.019Z,91.47
2022-12-04T03:26:40.805Z,89.60
2022-12-04T03:29:22.453Z,88.30
2022-12-04T03:32:03.973Z,96.20
2022-12-04T03:34:39.746Z,87.70
2022-12-04T03:37:12.560Z,84.72
2022-12-04T03:40:00.042Z,91.07
2022-12-04T03:42:32.623Z,84.00
2022-12-04T03:45:31.717Z,84.10
2022-12-04T03:48:04.508Z,94.30
2022-12-04T03:50:37.161Z,88.10
2022-12-04T03:53:12.416Z,86.93
2022-12-04T03:55:59.704Z,92.10
2022-12-04T03:58:32.831Z,88.05
2022-12-04T04:01:05.925Z,92.30
2022-12-04T04:03:38.823Z,94.97
2022-12-04T04:06:11.603Z,86.77
2022-12-04T04:08:44.301Z,85.80
2022-12-04T04:11:19.598Z,88.87
2022-12-04T04:14:18.989Z,90.53
2022-12-04T04:17:09.639Z,91.20
2022-12-04T04:19:59.908Z,82.70
2022-12-04T04:22:49.419Z,82.43
2022-12-04T04:25:21.491Z,95.65
2022-12-04T04:27:55.865Z,93.10
2022-12-04T04:30:27.521Z,87.30
2022-12-04T04:33:03.392Z,90.20
2022-12-04T04:35:38.770Z,84.43
2022-12-04T04:38:21.451Z,89.92
2022-12-04T04:41:15.051Z,86.30
2022-12-04T04:43:59.370Z,87.10
2022-12-04T04:46:34.971Z,95.28
2022-12-04T04:49:07.044Z,94.10
2022-12-04T04:51:37.923Z,88.50
2022-12-04T04:54:12.182Z,88.40
2022-12-04T04:56:44.980Z,85.60
2022-12-04T04:59:14.958Z,88.93
2022-12-04T05:01:47.376Z,96.07
2022-12-04T05:04:17.079Z,80.15
2022-12-04T05:06:48.519Z,83.90
2022-12-04T05:09:19.058Z,86.63
2022-12-04T05:11:48.779Z,90.53
2022-12-04T05:14:18.551Z,81.25
2022-12-04T05:16:48.600Z,85.92
2022-12-04T05:19:35.859Z,84.73
2022-12-04T05:22:05.529Z,83.37
2022-12-04T05:24:35.281Z,85.10
2022-12-04T05:27:05.179Z,83.33
2022-12-04T05:29:36.091Z,84.10
2022-12-04T05:32:07.841Z,88.76
2022-12-04T05:34:37.978Z,84.95
2022-12-04T05:37:08.003Z,84.10
2022-12-04T05:39:37.759Z,85.03
2022-12-04T05:42:07.309Z,87.87
2022-12-04T05:44:37.010Z,78.23
2022-12-04T05:47:08.256Z,86.85
2022-12-04T05:49:38.031Z,86.23
2022-12-04T05:52:08.136Z,80.10
2022-12-04T05:54:37.973Z,80.57
2022-12-04T05:57:08.647Z,82.88
2022-12-04T05:59:38.487Z,79.37
2022-12-04T06:02:08.459Z,79.50
2022-12-04T06:04:38.985Z,80.83
2022-12-04T06:07:10.009Z,71.92
2022-12-04T06:09:40.043Z,84.05
2022-12-04T06:12:10.638Z,79.65
2022-12-04T06:14:40.375Z,78.50
2022-12-04T06:17:10.172Z,81.20
2022-12-04T06:19:40.877Z,77.20
2022-12-04T06:22:10.396Z,80.93
2022-12-04T06:24:40.392Z,75.27
2022-12-04T06:27:27.673Z,80.80
2022-12-04T06:32:21.825Z,80.00
2022-12-04T06:34:54.979Z,76.30
2022-12-04T06:37:25.988Z,83.57
2022-12-04T06:39:56.108Z,78.77
2022-12-04T06:42:25.746Z,70.20
2022-12-04T06:44:55.517Z,80.37
2022-12-04T06:47:25.256Z,69.67
2022-12-04T06:49:55.265Z,79.53
2022-12-04T06:52:25.104Z,77.32
2022-12-04T06:54:55.160Z,79.50
2022-12-04T06:57:25.287Z,73.97
2022-12-04T06:59:55.143Z,79.15
2022-12-04T07:02:25.211Z,68.80
2022-12-04T07:04:57.628Z,66.43
2022-12-04T07:07:27.465Z,74.57
2022-12-04T07:09:57.520Z,78.13
2022-12-04T07:12:27.344Z,80.87
2022-12-04T07:14:57.095Z,71.90
2022-12-04T07:17:27.126Z,74.85
2022-12-04T07:19:57.136Z,71.27
2022-12-04T07:22:28.090Z,74.00
2022-12-04T07:24:57.813Z,75.43
2022-12-04T07:27:27.581Z,75.33
2022-12-04T07:29:57.798Z,78.17
2022-12-04T07:32:27.992Z,72.08
2022-12-04T07:34:58.000Z,77.70
2022-12-04T07:37:27.755Z,73.13
2022-12-04T07:39:57.977Z,74.10
2022-12-04T07:42:29.007Z,72.67
2022-12-04T07:44:59.090Z,73.92
2022-12-04T07:47:28.844Z,66.67
2022-12-04T07:49:58.854Z,73.90
2022-12-04T07:52:28.745Z,75.30
2022-12-04T07:54:59.364Z,77.83
2022-12-04T07:57:29.491Z,72.63
2022-12-04T07:59:59.569Z,69.63
2022-12-04T08:02:29.788Z,70.50
2022-12-04T08:04:59.713Z,75.57
2022-12-04T08:07:29.410Z,69.30
2022-12-04T08:09:59.310Z,71.83
2022-12-04T08:12:29.342Z,69.22
2022-12-04T08:14:59.441Z,72.85
2022-12-04T08:17:29.320Z,67.25
2022-12-04T08:19:59.483Z,67.22
2022-12-04T08:22:29.347Z,77.12
2022-12-04T08:24:59.132Z,71.97
2022-12-04T08:27:28.890Z,62.67
2022-12-04T08:29:58.524Z,63.40
2022-12-04T08:32:28.518Z,72.17
2022-12-04T08:34:58.256Z,65.53
2022-12-04T08:37:28.042Z,65.17
2022-12-04T08:39:58.888Z,60.47
2022-12-04T08:42:29.356Z,63.02
2022-12-04T08:44:59.468Z,60.17
2022-12-04T08:47:29.520Z,59.10
2022-12-04T08:49:59.502Z,60.77
2022-12-04T08:52:29.643Z,63.50
2022-12-04T08:54:59.568Z,61.30
2022-12-04T08:57:29.041Z,58.65
2022-12-04T08:59:58.998Z,63.13
2022-12-04T09:02:28.745Z,60.40
2022-12-04T09:04:59.021Z,57.73
2022-12-04T09:07:28.946Z,58.70
2022-12-04T09:09:59.073Z,59.73
2022-12-04T09:12:28.883Z,50.50
2022-12-04T09:14:58.628Z,51.97
2022-12-04T09:17:28.403Z,58.67
2022-12-04T09:20:01.265Z,57.25
2022-12-04T09:22:45.539Z,54.40
2022-12-04T09:25:01.089Z,52.63
2022-12-04T09:27:30.862Z,53.50
2022-12-04T09:30:00.642Z,62.40
2022-12-04T09:32:30.169Z,55.55
2022-12-04T09:34:59.926Z,55.27
2022-12-04T09:37:29.668Z,53.10
2022-12-04T09:39:59.872Z,51.10
2022-12-04T09:42:38.135Z,53.65
2022-12-04T09:45:13.379Z,59.47
2022-12-04T09:47:46.529Z,51.60
2022-12-04T09:50:23.177Z,51.80
2022-12-04T09:52:58.245Z,56.23
2022-12-04T09:55:39.979Z,56.13
2022-12-04T09:58:12.785Z,50.82
2022-12-04T10:00:45.953Z,51.87
2022-12-04T10:03:21.560Z,54.17
2022-12-04T10:06:14.704Z,63.08
2022-12-04T10:08:47.373Z,75.60
2022-12-04T10:11:47.126Z,66.10
2022-12-04T10:14:40.795Z,52.74
2022-12-04T10:17:47.727Z,49.27
2022-12-04T10:20:26.927Z,56.33
2022-12-04T10:23:18.717Z,44.80
2022-12-04T10:25:50.416Z,41.63
2022-12-04T10:28:23.397Z,44.50
2022-12-04T10:30:55.882Z,41.70
2022-12-04T10:33:31.534Z,38.50
2022-12-04T10:36:03.453Z,40.92
2022-12-04T10:38:50.745Z,41.87
2022-12-04T10:41:37.764Z,40.20
2022-12-04T10:44:12.765Z,41.35
2022-12-04T10:46:46.286Z,47.73
2022-12-04T10:49:20.898Z,40.20
2022-12-04T10:51:50.983Z,36.83
2022-12-04T10:54:23.790Z,35.58
2022-12-04T10:56:58.591Z,33.10
2022-12-04T10:59:29.794Z,35.93
2022-12-04T11:02:08.025Z,41.18
2022-12-04T11:04:37.933Z,34.93
2022-12-04T11:07:10.726Z,38.57
2022-12-04T11:09:42.004Z,38.33
2022-12-04T11:12:22.515Z,36.30
2022-12-04T11:15:11.854Z,34.80
2022-12-04T11:17:41.867Z,34.00
2022-12-04T11:20:22.055Z,36.67
2022-12-04T11:22:58.476Z,32.63
2022-12-04T11:25:33.920Z,35.40
2022-12-04T11:28:04.501Z,33.80
2022-12-04T11:30:37.324Z,30.45
2022-12-04T11:33:10.083Z,33.37
2022-12-04T11:35:40.591Z,36.23
2022-12-04T11:38:19.349Z,33.73
2022-12-04T11:40:52.164Z,39.20
2022-12-04T11:43:24.054Z,31.95
2022-12-04T11:46:02.799Z,31.33
2022-12-04T11:48:35.156Z,61.55
2022-12-04T11:51:40.594Z,47.60
2022-12-04T11:54:28.369Z,34.98
2022-12-04T11:57:01.340Z,33.33
2022-12-04T11:59:36.613Z,33.97
2022-12-04T12:02:21.664Z,35.63
2022-12-04T12:05:04.161Z,32.78
2022-12-04T12:07:51.995Z,35.53
2022-12-04T12:13:22.903Z,35.52
2022-12-04T12:16:10.143Z,34.33
2022-12-04T12:18:42.981Z,33.80
2022-12-04T12:21:18.831Z,34.23
2022-12-04T12:23:57.364Z,36.07
2022-12-04T12:26:32.605Z,30.55
2022-12-04T12:29:05.773Z,32.95
2022-12-04T12:31:56.634Z,36.17
2022-12-04T12:34:34.779Z,69.77
2022-12-04T12:37:13.260Z,80.40
2022-12-04T12:39:46.081Z,64.13
2022-12-04T12:45:09.806Z,45.10
2022-12-04T12:47:45.387Z,36.67
2022-12-04T12:50:34.903Z,43.38
2022-12-04T12:53:10.506Z,37.90
2022-12-04T12:55:43.040Z,35.17
2022-12-04T12:58:32.004Z,34.33
2022-12-04T13:01:20.202Z,39.25
2022-12-04T13:04:17.837Z,30.70
2022-12-04T13:06:50.645Z,35.53
2022-12-04T13:09:32.437Z,35.05
2022-12-04T13:12:05.255Z,32.23
2022-12-04T13:14:35.042Z,95.30
2022-12-04T13:17:07.980Z,85.53
2022-12-04T13:19:42.698Z,37.30
2022-12-04T13:22:18.157Z,36.28
2022-12-04T13:25:13.273Z,33.67
2022-12-04T13:28:00.861Z,35.20
2022-12-04T13:30:33.722Z,33.45
2022-12-04T13:33:23.296Z,32.53
2022-12-04T13:35:58.796Z,24.93
2022-12-04T13:38:31.287Z,32.35
2022-12-04T13:41:04.137Z,31.30
2022-12-04T13:43:46.081Z,30.37
2022-12-04T13:46:34.065Z,29.20
2022-12-04T13:49:18.912Z,30.00
2022-12-04T13:51:50.646Z,29.87
2022-12-04T13:54:31.680Z,31.03
2022-12-04T13:57:19.740Z,27.40
2022-12-04T13:59:50.109Z,26.90
2022-12-04T14:02:32.184Z,31.12
2022-12-04T14:05:05.049Z,31.07
2022-12-04T14:07:39.936Z,33.60
2022-12-04T14:10:21.282Z,38.55
2022-12-04T14:13:02.920Z,85.00
2022-12-04T14:15:35.983Z,54.35
2022-12-04T14:18:15.622Z,66.73
2022-12-04T14:20:46.013Z,71.20
2022-12-04T14:23:25.749Z,43.20
2022-12-04T14:25:59.942Z,47.10
2022-12-04T14:28:41.634Z,53.10
2022-12-04T14:31:29.427Z,51.10
2022-12-04T14:34:16.963Z,43.80
2022-12-04T14:36:49.256Z,84.83
2022-12-04T14:39:44.362Z,74.30
2022-12-04T14:42:40.247Z,53.60
2022-12-04T14:45:38.090Z,84.07
2022-12-04T14:48:18.341Z,39.45
2022-12-04T14:50:56.521Z,34.40
2022-12-04T14:53:44.193Z,31.43
2022-12-04T14:56:28.823Z,33.60
2022-12-04T14:58:59.738Z,38.37
2022-12-04T15:01:32.587Z,41.13
2022-12-04T15:04:08.187Z,33.20
2022-12-04T15:06:40.046Z,37.60
2022-12-04T15:09:36.819Z,42.07
2022-12-04T15:12:35.046Z,35.43
2022-12-04T15:15:21.189Z,32.10
2022-12-04T15:18:05.869Z,34.95
2022-12-04T15:20:39.519Z,35.52
2022-12-04T15:23:12.075Z,38.70
2022-12-04T15:25:47.789Z,42.10
2022-12-04T15:28:38.329Z,37.10
2022-12-04T15:31:11.221Z,39.43
2022-12-04T15:33:42.122Z,44.03
2022-12-04T15:36:14.917Z,42.37
2022-12-04T15:38:45.852Z,46.13
2022-12-04T15:41:30.458Z,45.10
2022-12-04T15:44:00.752Z,45.87
2022-12-04T15:46:37.673Z,45.53
2022-12-04T15:49:18.818Z,55.85
2022-12-04T15:51:49.386Z,71.33
2022-12-04T15:54:24.780Z,52.87
2022-12-04T15:57:09.289Z,52.70
2022-12-04T15:59:39.112Z,47.87
2022-12-04T16:02:23.273Z,46.25
2022-12-04T16:04:53.037Z,50.07
2022-12-04T16:07:28.556Z,53.73
2022-12-04T16:10:03.657Z,43.20
2022-12-04T16:12:33.100Z,46.90
2022-12-04T16:15:03.210Z,47.35
2022-12-04T16:17:36.376Z,49.93
2022-12-04T16:20:08.852Z,50.40
2022-12-04T16:22:41.261Z,46.07
2022-12-04T16:25:14.171Z,49.57
2022-12-04T16:27:43.906Z,50.77
2022-12-04T16:30:15.611Z,52.35
2022-12-04T16:32:45.343Z,54.80
2022-12-04T16:35:17.193Z,52.33
2022-12-04T16:37:47.008Z,51.57
2022-12-04T16:40:17.883Z,45.70
2022-12-04T16:42:47.662Z,49.50
2022-12-04T16:45:29.378Z,46.77
2022-12-04T16:47:59.129Z,48.90
2022-12-04T16:50:29.137Z,52.75
2022-12-04T16:52:59.612Z,47.30
2022-12-04T16:55:38.423Z,51.20
2022-12-04T16:58:09.855Z,49.85
2022-12-04T17:00:42.261Z,58.20
2022-12-04T17:03:26.729Z,57.60
2022-12-04T17:05:57.015Z,52.50
2022-12-04T17:08:27.026Z,50.23
2022-12-04T17:10:57.126Z,51.30
2022-12-04T17:13:26.881Z,49.93
2022-12-04T17:15:58.236Z,61.73
2022-12-04T17:18:28.950Z,60.03
2022-12-04T17:20:59.066Z,54.83
2022-12-04T17:23:28.796Z,50.63
2022-12-04T17:26:04.395Z,61.83
2022-12-04T17:28:36.334Z,56.10
2022-12-04T17:31:08.457Z,56.87
2022-12-04T17:33:38.184Z,61.37
2022-12-04T17:36:14.653Z,57.40
2022-12-04T17:38:44.831Z,55.35
2022-12-04T17:41:15.704Z,54.90
2022-12-04T17:43:45.834Z,55.75
2022-12-04T17:46:20.064Z,58.63
2022-12-04T17:48:50.600Z,54.90
2022-12-04T17:51:26.011Z,51.37
2022-12-04T17:53:56.090Z,54.30
2022-12-04T17:56:26.611Z,56.53
2022-12-04T17:58:56.751Z,53.10
2022-12-04T18:01:28.701Z,56.80
2022-12-04T18:04:03.103Z,57.03
2022-12-04T18:06:35.922Z,72.47
2022-12-04T18:09:07.609Z,55.27
2022-12-04T18:11:39.791Z,54.20
2022-12-04T18:14:14.143Z,50.12
2022-12-04T18:16:47.020Z,53.47
2022-12-04T18:19:17.013Z,50.30
2022-12-04T18:21:46.526Z,53.75
2022-12-04T18:24:17.464Z,51.93
2022-12-04T18:26:49.221Z,57.13
2022-12-04T18:29:25.039Z,49.10
2022-12-04T18:31:54.976Z,41.30
2022-12-04T18:34:24.908Z,45.33
2022-12-04T18:36:55.450Z,38.30
2022-12-04T18:39:26.552Z,45.17
2022-12-04T18:41:56.937Z,49.77
2022-12-04T18:44:27.079Z,39.67
2022-12-04T18:47:00.575Z,44.00
2022-12-04T18:49:30.690Z,44.48
2022-12-04T18:52:00.803Z,46.33
2022-12-04T18:54:30.643Z,52.20
2022-12-04T18:57:00.684Z,46.48
2022-12-04T18:59:30.428Z,48.83
2022-12-04T19:02:00.281Z,44.60
2022-12-04T19:04:33.014Z,43.50
2022-12-04T19:07:04.849Z,46.77
2022-12-04T19:10:10.054Z,41.10
2022-12-04T19:12:09.263Z,49.90
2022-12-04T19:14:39.735Z,43.17
2022-12-04T19:17:10.306Z,50.13
2022-12-04T19:19:40.525Z,45.58
2022-12-04T19:22:11.771Z,45.20
2022-12-04T19:24:41.771Z,46.63
2022-12-04T19:27:12.005Z,44.10
2022-12-04T19:29:43.432Z,42.47
2022-12-04T19:32:13.317Z,42.15
2022-12-04T19:34:43.600Z,42.67
2022-12-04T19:37:14.324Z,44.45
2022-12-04T19:39:44.745Z,42.00
2022-12-04T19:42:14.537Z,49.97
2022-12-04T19:44:49.222Z,49.90
2022-12-04T19:47:15.788Z,46.07
2022-12-04T19:49:46.610Z,49.10
2022-12-04T19:52:16.463Z,44.50
2022-12-04T19:54:46.335Z,50.47
2022-12-04T19:57:16.170Z,48.60
2022-12-04T19:59:46.898Z,52.90
2022-12-04T20:02:16.881Z,51.53
2022-12-04T20:04:46.713Z,46.40
2022-12-04T20:07:17.423Z,55.95
2022-12-04T20:09:52.098Z,46.40
2022-12-04T20:12:19.035Z,49.05
2022-12-04T20:14:48.880Z,48.47
2022-12-04T20:17:18.623Z,51.60
2022-12-04T20:19:48.692Z,48.87
2022-12-04T20:22:18.129Z,51.67
2022-12-04T20:24:47.880Z,50.77
2022-12-04T20:27:17.667Z,59.37
2022-12-04T20:29:47.773Z,57.00
2022-12-04T20:32:17.266Z,54.83
2022-12-04T20:34:47.106Z,57.23
2022-12-04T20:37:17.149Z,57.65
2022-12-04T20:39:47.224Z,57.23
2022-12-04T20:42:16.982Z,55.35
2022-12-04T20:44:46.772Z,60.00
2022-12-04T20:47:16.504Z,60.77
2022-12-04T20:49:46.249Z,60.03
2022-12-04T20:52:15.785Z,61.87
2022-12-04T20:54:45.557Z,62.83
2022-12-04T20:57:15.394Z,63.80
2022-12-04T20:59:45.140Z,63.73
2022-12-04T21:02:15.104Z,68.00
2022-12-04T21:04:44.837Z,64.07
2022-12-04T21:07:14.582Z,68.10
2022-12-04T21:09:44.393Z,66.33
2022-12-04T21:12:31.957Z,67.00
2022-12-04T21:15:18.971Z,63.87
2022-12-04T21:17:48.714Z,62.70
2022-12-04T21:20:18.245Z,67.55
2022-12-04T21:22:48.013Z,65.17
2022-12-04T21:25:17.556Z,65.83
2022-12-04T21:27:47.392Z,65.10
2022-12-04T21:30:17.210Z,61.73
2022-12-04T21:32:46.948Z,70.23
2022-12-04T21:35:16.757Z,65.83
2022-12-04T21:37:46.506Z,59.03
2022-12-04T21:40:16.280Z,71.07
2022-12-04T21:42:46.037Z,66.17
2022-12-04T21:45:15.800Z,67.62
2022-12-04T21:47:45.540Z,67.60
2022-12-04T21:50:15.280Z,64.00
2022-12-04T21:52:45.038Z,72.70
2022-12-04T21:55:14.568Z,72.27
2022-12-04T21:57:44.608Z,66.60
2022-12-04T22:00:14.842Z,63.90
2022-12-04T22:02:44.701Z,75.27
2022-12-04T22:05:14.495Z,61.48
2022-12-04T22:07:44.630Z,68.15
2022-12-04T22:10:14.819Z,65.34
2022-12-04T22:12:50.395Z,67.93
2022-12-04T22:15:16.853Z,61.13
2022-12-04T22:17:46.678Z,60.07
2022-12-04T22:20:16.407Z,63.57
2022-12-04T22:22:46.183Z,66.73
2022-12-04T22:25:16.012Z,71.30
2022-12-04T22:27:45.767Z,66.03
2022-12-04T22:30:16.100Z,63.02
2022-12-04T22:32:45.935Z,64.93
2022-12-04T22:35:16.121Z,61.13
2022-12-04T22:37:46.181Z,69.23
2022-12-04T22:40:17.194Z,72.42
2022-12-04T22:42:47.225Z,66.77
2022-12-04T22:45:17.003Z,62.47
2022-12-04T22:47:46.734Z,67.37
2022-12-04T22:50:16.927Z,63.53
2022-12-04T22:52:46.631Z,63.97
2022-12-04T22:55:16.519Z,62.58
2022-12-04T22:57:46.561Z,64.07
2022-12-04T23:00:16.708Z,66.23
2022-12-04T23:02:46.521Z,62.73
2022-12-04T23:05:16.349Z,72.20
2022-12-04T23:07:46.327Z,64.13
2022-12-04T23:10:16.185Z,66.20
2022-12-04T23:12:45.932Z,61.27
2022-12-04T23:15:15.990Z,61.18
2022-12-04T23:17:45.811Z,63.50
2022-12-04T23:20:16.475Z,65.95
2022-12-04T23:22:47.895Z,60.63
2022-12-04T23:25:17.726Z,60.87
2022-12-04T23:27:47.465Z,66.70
2022-12-04T23:30:21.406Z,64.37
2022-12-04T23:32:48.943Z,58.63
2022-12-04T23:35:18.616Z,57.00
2022-12-04T23:37:48.066Z,54.80
2022-12-04T23:40:17.884Z,56.77
2022-12-04T23:42:47.644Z,58.30
2022-12-04T23:45:17.177Z,57.65
2022-12-04T23:47:47.511Z,55.43
2022-12-04T23:50:17.116Z,53.95
2022-12-04T23:52:46.879Z,60.30
2022-12-04T23:55:16.955Z,57.65
2022-12-04T23:57:46.718Z,55.63
